createdAt,value
2023-05-12T00:00:33.583Z,10.95
2023-05-12T00:03:03.972Z,11.23
2023-05-12T00:05:32.767Z,11.57
2023-05-12T00:08:33.725Z,11.75
2023-05-12T00:11:03.658Z,11.18
2023-05-12T00:13:32.746Z,11.13
2023-05-12T00:16:01.404Z,11.27
2023-05-12T00:19:03.720Z,11.95
2023-05-12T00:21:34.904Z,11.70
2023-05-12T00:24:04.861Z,11.75
2023-05-12T00:26:34.027Z,10.90
2023-05-12T00:29:03.438Z,11.02
2023-05-12T00:31:32.646Z,11.02
2023-05-12T00:34:01.264Z,10.77
2023-05-12T00:36:29.622Z,10.73
2023-05-12T00:38:58.724Z,10.48
2023-05-12T00:41:28.594Z,10.60
2023-05-12T00:44:33.683Z,10.23
2023-05-12T00:47:42.981Z,10.13
2023-05-12T00:50:12.603Z,10.27
2023-05-12T00:52:51.601Z,8.98
2023-05-12T00:55:20.444Z,10.32
2023-05-12T00:57:49.606Z,9.93
2023-05-12T01:00:22.322Z,8.75
2023-05-12T01:02:52.864Z,9.35
2023-05-12T01:05:21.451Z,10.15
2023-05-12T01:07:50.496Z,8.38
2023-05-12T01:10:21.959Z,8.60
2023-05-12T01:12:51.905Z,7.93
2023-05-12T01:15:21.470Z,8.05
2023-05-12T01:17:56.348Z,6.45
2023-05-12T01:20:26.613Z,7.63
2023-05-12T01:22:55.495Z,7.18
2023-05-12T01:25:25.772Z,6.82
2023-05-12T01:27:55.660Z,8.55
2023-05-12T01:30:24.819Z,7.00
2023-05-12T01:32:53.463Z,8.40
2023-05-12T01:35:21.953Z,8.25
2023-05-12T01:38:05.565Z,7.97
2023-05-12T01:40:37.667Z,8.05
2023-05-12T01:43:06.914Z,9.07
2023-05-12T01:45:42.488Z,8.02
2023-05-12T01:48:14.754Z,8.32
2023-05-12T01:50:43.680Z,9.00
2023-05-12T01:53:16.757Z,7.95
2023-05-12T01:55:46.796Z,8.55
2023-05-12T01:58:15.608Z,9.57
2023-05-12T02:00:44.965Z,9.43
2023-05-12T02:03:24.605Z,9.18
2023-05-12T02:05:56.530Z,8.48
2023-05-12T02:08:29.926Z,14.48
2023-05-12T02:11:08.365Z,9.93
2023-05-12T02:13:38.260Z,10.95
2023-05-12T02:16:17.608Z,9.30
2023-05-12T02:18:53.696Z,8.75
2023-05-12T02:21:26.144Z,8.87
2023-05-12T02:24:01.755Z,8.57
2023-05-12T02:26:31.823Z,9.63
2023-05-12T02:29:08.160Z,8.38
2023-05-12T02:31:46.794Z,8.15
2023-05-12T02:34:25.663Z,8.18
2023-05-12T02:37:04.892Z,9.15
2023-05-12T02:39:34.609Z,8.50
2023-05-12T02:42:10.726Z,8.50
2023-05-12T02:44:42.947Z,7.40
2023-05-12T02:47:11.634Z,8.50
2023-05-12T02:49:40.818Z,8.48
2023-05-12T02:52:48.587Z,7.90
2023-05-12T02:55:20.726Z,7.82
2023-05-12T02:57:57.933Z,7.75
2023-05-12T03:00:38.401Z,7.10
2023-05-12T03:03:40.811Z,7.15
2023-05-12T03:06:10.509Z,7.82
2023-05-12T03:08:39.805Z,7.10
2023-05-12T03:11:11.537Z,7.43
2023-05-12T03:13:51.908Z,8.05
2023-05-12T03:16:21.827Z,7.50
2023-05-12T03:19:09.144Z,8.02
2023-05-12T03:21:38.327Z,7.72
2023-05-12T03:24:14.027Z,7.70
2023-05-12T03:26:42.965Z,7.15
2023-05-12T03:29:12.718Z,8.20
2023-05-12T03:31:42.272Z,7.22
2023-05-12T03:34:43.527Z,9.55
2023-05-12T03:37:19.828Z,11.23
2023-05-12T03:40:31.231Z,7.40
2023-05-12T03:44:44.199Z,7.20
2023-05-12T03:47:14.072Z,6.85
2023-05-12T03:49:43.015Z,7.05
2023-05-12T03:52:18.126Z,7.10
2023-05-12T03:54:46.751Z,6.05
2023-05-12T03:57:15.902Z,7.00
2023-05-12T03:59:51.968Z,6.60
2023-05-12T04:02:21.893Z,7.32
2023-05-12T04:04:53.734Z,7.38
2023-05-12T04:07:23.069Z,7.53
2023-05-12T04:09:51.650Z,7.47
2023-05-12T04:12:23.562Z,7.13
2023-05-12T04:14:52.166Z,6.63
2023-05-12T04:17:23.003Z,7.15
2023-05-12T04:19:53.792Z,7.30
2023-05-12T04:22:25.595Z,7.30
2023-05-12T04:24:54.720Z,7.22
2023-05-12T04:27:24.842Z,7.70
2023-05-12T04:30:00.215Z,7.35
2023-05-12T04:32:28.965Z,10.40
2023-05-12T04:34:58.052Z,6.85
2023-05-12T04:37:28.240Z,6.60
2023-05-12T04:39:59.805Z,6.97
2023-05-12T04:42:28.676Z,6.45
2023-05-12T04:45:00.116Z,6.35
2023-05-12T04:47:29.757Z,6.18
2023-05-12T04:50:40.438Z,6.40
2023-05-12T04:54:47.315Z,6.75
2023-05-12T04:57:16.113Z,6.47
2023-05-12T05:00:18.756Z,5.90
2023-05-12T05:04:01.053Z,10.00
2023-05-12T05:06:34.236Z,6.68
2023-05-12T05:09:11.080Z,6.00
2023-05-12T05:12:15.525Z,6.32
2023-05-12T05:20:57.713Z,5.55
2023-05-12T05:23:27.474Z,6.57
2023-05-12T05:25:57.028Z,5.85
2023-05-12T05:28:28.044Z,5.40
2023-05-12T05:30:58.233Z,5.82
2023-05-12T05:33:46.747Z,5.43
2023-05-12T05:36:50.654Z,12.40
2023-05-12T05:39:18.734Z,5.57
2023-05-12T05:41:47.092Z,7.43
2023-05-12T05:44:16.049Z,5.85
2023-05-12T05:46:44.938Z,7.53
2023-05-12T05:49:13.489Z,8.48
2023-05-12T05:51:46.372Z,5.68
2023-05-12T06:03:29.536Z,6.30
2023-05-12T06:06:07.153Z,6.68
2023-05-12T06:09:48.491Z,6.68
2023-05-12T06:17:37.617Z,5.97
2023-05-12T06:20:20.455Z,5.25
2023-05-12T06:28:32.697Z,6.10
2023-05-12T06:31:09.887Z,5.72
2023-05-12T06:33:38.633Z,8.63
2023-05-12T06:36:11.020Z,5.50
2023-05-12T06:40:23.549Z,5.72
2023-05-12T06:49:21.688Z,5.28
2023-05-12T06:52:58.431Z,5.55
2023-05-12T06:56:01.059Z,4.80
2023-05-12T06:58:44.937Z,4.80
2023-05-12T07:01:15.108Z,5.38
2023-05-12T07:03:55.210Z,4.78
2023-05-12T07:07:31.734Z,4.00
2023-05-12T07:10:55.897Z,4.38
2023-05-12T07:14:19.470Z,5.65
2023-05-12T07:17:03.701Z,5.30
2023-05-12T07:19:36.617Z,5.22
2023-05-12T07:22:38.854Z,4.80
2023-05-12T07:25:50.028Z,4.72
2023-05-12T07:28:35.835Z,4.18
2023-05-12T07:31:07.773Z,4.40
2023-05-12T07:33:36.629Z,3.90
2023-05-12T07:37:09.700Z,4.13
2023-05-12T07:39:51.067Z,3.83
2023-05-12T07:43:55.919Z,3.38
2023-05-12T07:46:24.867Z,3.00
2023-05-12T07:48:54.728Z,2.85
2023-05-12T07:51:27.006Z,3.22
2023-05-12T07:54:02.205Z,3.33
2023-05-12T07:56:35.411Z,3.00
2023-05-12T07:59:05.183Z,3.28
2023-05-12T08:01:41.504Z,3.00
2023-05-12T08:04:14.369Z,2.95
2023-05-12T08:07:34.391Z,2.97
2023-05-12T08:13:48.012Z,3.20
2023-05-12T08:16:20.439Z,2.65
2023-05-12T08:19:55.264Z,3.10
2023-05-12T08:23:07.136Z,2.95
2023-05-12T08:30:47.855Z,3.17
2023-05-12T08:33:19.354Z,2.88
2023-05-12T08:35:49.046Z,2.97
2023-05-12T08:38:17.968Z,2.60
2023-05-12T08:41:13.916Z,2.67
2023-05-12T08:44:12.118Z,2.40
2023-05-12T08:46:48.930Z,2.50
2023-05-12T08:49:22.869Z,2.10
2023-05-12T08:51:58.190Z,2.85
2023-05-12T08:54:52.396Z,2.80
2023-05-12T08:58:03.393Z,3.15
2023-05-12T09:01:08.980Z,2.83
2023-05-12T09:04:18.194Z,2.22
2023-05-12T09:07:22.686Z,2.50
2023-05-12T09:09:59.559Z,2.30
2023-05-12T09:15:05.044Z,2.55
2023-05-12T09:17:38.288Z,2.17
2023-05-12T09:20:23.905Z,2.05
2023-05-12T09:23:00.357Z,2.25
2023-05-12T09:25:29.954Z,1.85
2023-05-12T09:27:58.337Z,2.22
2023-05-12T09:30:32.335Z,2.65
2023-05-12T09:33:29.854Z,2.10
2023-05-12T09:36:01.366Z,2.38
2023-05-12T09:38:35.200Z,2.05
2023-05-12T09:41:04.501Z,2.20
2023-05-12T09:43:33.299Z,1.60
2023-05-12T09:46:06.377Z,2.15
2023-05-12T09:48:37.591Z,2.30
2023-05-12T09:51:16.981Z,2.20
2023-05-12T09:54:01.216Z,2.13
2023-05-12T09:56:34.399Z,1.92
2023-05-12T09:59:06.816Z,2.10
2023-05-12T10:01:38.122Z,2.00
2023-05-12T10:04:08.014Z,1.67
2023-05-12T10:10:26.887Z,1.98
2023-05-12T10:12:57.145Z,2.20
2023-05-12T10:15:26.155Z,1.60
2023-05-12T10:18:00.298Z,2.78
2023-05-12T10:20:28.979Z,1.90
2023-05-12T10:22:57.264Z,1.40
2023-05-12T10:25:39.653Z,2.30
2023-05-12T10:28:10.130Z,1.80
2023-05-12T10:30:40.702Z,2.10
2023-05-12T10:33:12.621Z,1.90
2023-05-12T10:35:43.229Z,1.48
2023-05-12T10:38:24.020Z,1.85
2023-05-12T10:41:35.432Z,2.10
2023-05-12T10:44:16.137Z,1.90
2023-05-12T10:53:52.750Z,1.97
2023-05-12T10:57:31.983Z,2.30
2023-05-12T11:00:10.749Z,1.80
2023-05-12T11:03:38.304Z,1.85
2023-05-12T11:06:22.713Z,1.90
2023-05-12T11:08:55.413Z,2.17
2023-05-12T11:11:25.864Z,1.90
2023-05-12T11:18:38.196Z,2.00
2023-05-12T11:30:08.370Z,1.98
2023-05-12T11:33:11.926Z,1.70
2023-05-12T11:35:46.385Z,1.70
2023-05-12T11:38:29.304Z,1.80
2023-05-12T11:41:09.006Z,1.67
2023-05-12T11:48:12.608Z,1.85
2023-05-12T11:50:57.886Z,2.25
2023-05-12T11:54:09.483Z,2.17
2023-05-12T11:58:41.227Z,1.95
2023-05-12T12:13:13.653Z,3.25
2023-05-12T12:23:37.818Z,1.95
2023-05-12T12:26:53.124Z,2.00
2023-05-12T12:29:24.010Z,1.95
2023-05-12T12:32:16.534Z,1.80
2023-05-12T12:35:18.271Z,1.98
2023-05-12T12:38:06.611Z,1.58
2023-05-12T12:41:07.012Z,2.22
2023-05-12T12:44:07.279Z,1.98
2023-05-12T12:46:39.713Z,1.75
2023-05-12T12:52:40.956Z,1.90
2023-05-12T12:55:34.578Z,1.95
2023-05-12T12:58:06.643Z,1.95
2023-05-12T13:02:14.474Z,2.33
2023-05-12T13:04:47.366Z,1.60
2023-05-12T13:07:23.236Z,2.25
2023-05-12T13:10:34.506Z,1.98
2023-05-12T13:14:15.716Z,1.92
2023-05-12T13:17:28.578Z,1.95
2023-05-12T13:19:59.816Z,1.90
2023-05-12T13:22:29.170Z,1.80
2023-05-12T13:25:36.998Z,2.15
2023-05-12T13:32:24.053Z,1.77
2023-05-12T13:34:57.368Z,1.80
2023-05-12T13:37:27.566Z,2.00
2023-05-12T13:39:58.595Z,2.00
2023-05-12T13:42:29.887Z,2.10
2023-05-12T13:44:58.121Z,2.00
2023-05-12T13:50:10.848Z,2.78
2023-05-12T13:53:07.736Z,2.00
2023-05-12T13:55:40.650Z,1.73
2023-05-12T13:58:10.767Z,2.10
2023-05-12T14:00:44.337Z,1.80
2023-05-12T14:03:35.258Z,2.10
2023-05-12T14:06:04.679Z,2.55
2023-05-12T14:11:58.362Z,2.00
2023-05-12T14:18:43.856Z,2.63
2023-05-12T14:21:22.325Z,2.03
2023-05-12T14:23:57.821Z,2.13
2023-05-12T14:27:20.020Z,2.00
2023-05-12T14:30:59.644Z,2.67
2023-05-12T14:33:37.732Z,2.00
2023-05-12T14:36:08.941Z,1.90
2023-05-12T14:38:42.806Z,2.22
2023-05-12T14:41:12.627Z,3.28
2023-05-12T14:43:42.184Z,1.60
2023-05-12T14:46:12.788Z,2.20
2023-05-12T14:48:41.810Z,2.10
2023-05-12T14:51:11.198Z,2.38
2023-05-12T14:53:41.767Z,2.00
2023-05-12T14:56:12.286Z,1.83
2023-05-12T14:58:40.658Z,1.80
2023-05-12T15:01:09.713Z,2.13
2023-05-12T15:03:38.930Z,1.92
2023-05-12T15:06:08.830Z,1.90
2023-05-12T15:08:37.606Z,1.90
2023-05-12T15:11:09.468Z,1.90
2023-05-12T15:13:38.475Z,1.67
2023-05-12T15:16:08.431Z,2.17
2023-05-12T15:18:38.450Z,2.65
2023-05-12T15:21:06.787Z,3.30
2023-05-12T15:23:39.887Z,3.15
2023-05-12T15:26:26.942Z,3.08
2023-05-12T15:29:06.185Z,3.42
2023-05-12T15:31:35.435Z,3.88
2023-05-12T15:34:07.874Z,3.85
2023-05-12T15:36:40.450Z,3.30
2023-05-12T15:39:09.446Z,4.00
2023-05-12T15:41:38.885Z,4.95
2023-05-12T15:44:30.939Z,4.20
2023-05-12T15:47:03.231Z,4.20
2023-05-12T15:49:32.935Z,4.13
2023-05-12T15:52:04.160Z,3.03
2023-05-12T15:54:37.957Z,3.10
2023-05-12T15:57:06.929Z,4.22
2023-05-12T15:59:35.644Z,3.45
2023-05-12T16:02:04.542Z,3.25
2023-05-12T16:04:34.327Z,3.67
2023-05-12T16:07:12.613Z,3.63
2023-05-12T16:09:48.716Z,3.05
2023-05-12T16:14:48.246Z,4.80
2023-05-12T16:17:16.551Z,4.53
2023-05-12T16:19:45.648Z,4.55
2023-05-12T16:22:18.736Z,4.18
2023-05-12T16:24:48.225Z,4.95
2023-05-12T16:28:00.717Z,4.32
2023-05-12T16:31:28.990Z,4.35
2023-05-12T16:38:03.378Z,3.75
2023-05-12T17:11:39.615Z,5.13
2023-05-12T17:17:45.633Z,5.57
2023-05-12T17:20:16.026Z,5.75
2023-05-12T17:22:47.406Z,8.88
2023-05-12T17:25:20.735Z,5.82
2023-05-12T17:28:19.376Z,6.60
2023-05-12T17:30:52.191Z,5.93
2023-05-12T17:33:24.723Z,6.97
2023-05-12T17:36:12.800Z,6.63
2023-05-12T17:38:53.111Z,7.80
2023-05-12T17:42:38.931Z,6.88
2023-05-12T17:45:11.748Z,9.52
2023-05-12T17:48:15.234Z,10.57
2023-05-12T17:51:00.935Z,11.98
2023-05-12T17:53:34.144Z,9.48
2023-05-12T17:56:04.658Z,8.88
2023-05-12T17:58:34.486Z,9.75
2023-05-12T18:01:11.839Z,8.68
2023-05-12T18:03:49.851Z,11.63
2023-05-12T18:06:54.250Z,9.73
2023-05-12T18:09:32.912Z,10.52
2023-05-12T18:12:08.927Z,11.07
2023-05-12T18:14:48.620Z,11.93
2023-05-12T18:54:29.099Z,13.02
2023-05-12T18:56:58.774Z,17.92
2023-05-12T19:09:27.859Z,13.18
2023-05-12T19:12:54.439Z,14.50
2023-05-12T19:15:29.877Z,13.25
2023-05-12T19:18:17.686Z,14.93
2023-05-12T19:22:31.263Z,13.05
2023-05-12T19:25:06.342Z,13.75
2023-05-12T19:27:37.634Z,13.63
2023-05-12T19:30:09.293Z,12.32
2023-05-12T19:32:38.084Z,14.38
2023-05-12T19:35:40.818Z,14.93
2023-05-12T19:38:16.113Z,14.90
2023-05-12T19:40:46.002Z,14.43
2023-05-12T19:43:16.111Z,16.25
2023-05-12T19:45:44.201Z,15.15
2023-05-12T19:48:32.795Z,17.25
2023-05-12T19:51:18.117Z,15.65
2023-05-12T19:56:34.868Z,16.15
2023-05-12T19:59:12.872Z,18.45
2023-05-12T20:01:49.585Z,17.00
2023-05-12T20:05:27.042Z,17.17
2023-05-12T20:07:59.974Z,20.70
2023-05-12T20:10:30.896Z,20.25
2023-05-12T20:13:33.427Z,18.98
2023-05-12T20:16:38.883Z,17.35
2023-05-12T20:19:07.379Z,17.10
2023-05-12T20:24:37.234Z,16.80
2023-05-12T20:27:46.992Z,16.58
2023-05-12T20:30:17.687Z,16.05
2023-05-12T20:32:54.917Z,18.60
2023-05-12T20:35:28.827Z,18.75
2023-05-12T20:38:03.061Z,18.27
2023-05-12T20:40:31.838Z,17.83
2023-05-12T20:43:04.193Z,18.25
2023-05-12T20:45:36.906Z,19.40
2023-05-12T20:48:06.583Z,18.67
2023-05-12T20:50:36.426Z,20.42
2023-05-12T20:53:06.159Z,20.40
2023-05-12T20:55:34.383Z,20.42
2023-05-12T20:58:03.231Z,19.20
2023-05-12T21:00:31.959Z,19.17
2023-05-12T21:03:17.319Z,18.63
2023-05-12T21:07:06.678Z,18.63
2023-05-12T21:09:35.058Z,16.67
2023-05-12T21:12:03.424Z,17.10
2023-05-12T21:14:40.673Z,17.40
2023-05-12T21:19:44.155Z,17.67
2023-05-12T21:22:14.202Z,16.95
2023-05-12T21:24:43.145Z,16.48
2023-05-12T21:27:12.070Z,16.10
2023-05-12T21:29:40.571Z,16.23
2023-05-12T21:32:09.240Z,15.70
2023-05-12T21:34:39.188Z,16.92
2023-05-12T21:37:40.046Z,15.02
2023-05-12T21:40:10.066Z,15.98
2023-05-12T21:42:47.544Z,15.40
2023-05-12T21:45:16.591Z,15.48
2023-05-12T21:47:50.010Z,17.50
2023-05-12T21:50:21.996Z,15.18
2023-05-12T21:52:50.400Z,14.75
2023-05-12T21:55:18.575Z,15.07
2023-05-12T21:57:47.222Z,15.48
2023-05-12T22:00:19.126Z,17.38
2023-05-12T22:02:48.259Z,15.57
2023-05-12T22:05:17.081Z,15.82
2023-05-12T22:07:48.419Z,15.07
2023-05-12T22:10:17.533Z,15.95
2023-05-12T22:12:48.853Z,15.57
2023-05-12T22:15:19.070Z,16.20
2023-05-12T22:17:48.886Z,15.13
2023-05-12T22:20:20.397Z,14.85
2023-05-12T22:22:49.775Z,15.52
2023-05-12T22:25:18.865Z,15.68
2023-05-12T22:27:55.029Z,16.05
2023-05-12T22:30:28.128Z,14.15
2023-05-12T22:33:00.733Z,15.13
2023-05-12T22:35:30.084Z,14.80
2023-05-12T22:37:59.000Z,16.00
2023-05-12T22:40:27.959Z,14.95
2023-05-12T22:42:55.995Z,15.70
2023-05-12T22:45:25.966Z,14.65
2023-05-12T22:47:55.346Z,16.38
2023-05-12T22:50:24.471Z,17.10
2023-05-12T22:52:57.516Z,17.67
2023-05-12T22:55:27.996Z,17.83
2023-05-12T22:57:57.164Z,17.98
2023-05-12T23:00:27.089Z,18.27
2023-05-12T23:03:04.251Z,17.83
2023-05-12T23:05:33.368Z,18.55
2023-05-12T23:08:03.065Z,16.65
2023-05-12T23:10:32.579Z,18.23
2023-05-12T23:13:05.427Z,16.15
2023-05-12T23:15:41.266Z,16.67
2023-05-12T23:18:09.384Z,15.77
2023-05-12T23:20:39.136Z,15.57
2023-05-12T23:23:07.503Z,15.82
2023-05-12T23:25:38.814Z,16.45
2023-05-12T23:28:07.277Z,15.60
2023-05-12T23:30:35.878Z,16.13
2023-05-12T23:33:04.261Z,15.60
2023-05-12T23:35:50.778Z,15.05
2023-05-12T23:38:20.354Z,13.10
2023-05-12T23:40:49.073Z,14.55
2023-05-12T23:43:17.421Z,15.32
2023-05-12T23:45:45.956Z,14.90
2023-05-12T23:48:14.420Z,13.82
2023-05-12T23:50:43.640Z,15.05
2023-05-12T23:53:11.961Z,14.93
2023-05-12T23:55:41.470Z,14.73
2023-05-12T23:58:11.636Z,14.68
